createdAt,value
2022-10-23T00:01:16.947Z,100961.41
2022-10-23T00:04:09.146Z,100958.69
2022-10-23T00:06:56.506Z,100956.34
2022-10-23T00:09:44.266Z,100958.06
2022-10-23T00:12:31.720Z,100959.63
2022-10-23T00:15:22.207Z,100957.56
2022-10-23T00:18:09.498Z,100958.19
2022-10-23T00:20:57.360Z,100958.81
2022-10-23T00:23:45.683Z,100940.94
2022-10-23T00:26:33.109Z,100951.66
2022-10-23T00:29:20.834Z,100939.50
2022-10-23T00:32:08.245Z,100935.25
2022-10-23T00:34:55.535Z,100946.47
2022-10-23T00:37:43.158Z,100943.63
2022-10-23T00:40:30.685Z,100945.53
2022-10-23T00:43:21.044Z,100938.53
2022-10-23T00:46:08.386Z,100943.13
2022-10-23T00:48:56.508Z,100953.00
2022-10-23T00:51:47.935Z,100944.06
2022-10-23T00:54:39.194Z,100934.84
2022-10-23T00:57:26.497Z,100929.59
2022-10-23T01:00:17.497Z,100937.06
2022-10-23T01:03:04.869Z,100931.00
2022-10-23T01:05:55.134Z,100937.66
2022-10-23T01:09:00.073Z,100941.47
2022-10-23T01:11:55.711Z,100941.75
2022-10-23T01:15:01.242Z,100943.06
2022-10-23T01:17:55.556Z,100946.38
2022-10-23T01:21:05.439Z,100944.63
2022-10-23T01:24:20.330Z,100951.25
2022-10-23T01:27:31.909Z,100947.03
2022-10-23T01:30:19.290Z,100950.31
2022-10-23T01:33:21.698Z,100960.34
2022-10-23T01:36:13.660Z,100966.19
2022-10-23T01:39:08.895Z,100962.47
2022-10-23T01:42:03.964Z,100959.88
2022-10-23T01:45:02.304Z,100954.38
2022-10-23T01:47:51.449Z,100949.66
2022-10-23T01:50:41.180Z,100947.06
2022-10-23T01:53:33.793Z,100945.16
2022-10-23T01:56:26.880Z,100946.75
2022-10-23T01:59:21.368Z,100947.56
2022-10-23T02:02:12.250Z,100941.66
2022-10-23T02:05:04.893Z,100945.44
2022-10-23T02:07:54.505Z,100936.88
2022-10-23T02:10:44.318Z,100938.47
2022-10-23T02:13:59.388Z,100930.34
2022-10-23T02:16:51.351Z,100926.16
2022-10-23T02:19:45.694Z,100923.00
2022-10-23T02:22:41.234Z,100917.69
2022-10-23T02:25:39.105Z,100911.78
2022-10-23T02:28:38.634Z,100912.41
2022-10-23T02:31:26.070Z,100903.34
2022-10-23T02:34:13.381Z,100898.41
2022-10-23T02:37:00.859Z,100906.84
2022-10-23T02:39:49.202Z,100894.22
2022-10-23T02:42:46.902Z,100905.66
2022-10-23T02:45:54.368Z,100896.84
2022-10-23T02:48:53.403Z,100898.28
2022-10-23T02:51:56.534Z,100913.47
2022-10-23T02:55:09.598Z,100900.69
2022-10-23T02:58:01.547Z,100908.13
2022-10-23T03:00:50.909Z,100904.75
2022-10-23T03:03:51.066Z,100906.25
2022-10-23T03:06:39.608Z,100908.28
2022-10-23T03:09:27.460Z,100902.69
2022-10-23T03:12:14.737Z,100896.63
2022-10-23T03:15:02.207Z,100905.94
2022-10-23T03:17:49.564Z,100919.41
2022-10-23T03:20:36.922Z,100933.41
2022-10-23T03:23:24.247Z,100924.00
2022-10-23T03:26:12.306Z,100921.72
2022-10-23T03:28:59.592Z,100924.78
2022-10-23T03:31:46.919Z,100923.38
2022-10-23T03:34:34.826Z,100933.75
2022-10-23T03:37:22.359Z,100923.84
2022-10-23T03:40:10.222Z,100915.78
2022-10-23T03:42:58.011Z,100907.41
2022-10-23T03:45:45.613Z,100917.91
2022-10-23T03:48:33.076Z,100907.00
2022-10-23T03:51:20.394Z,100905.81
2022-10-23T03:54:08.471Z,100902.81
2022-10-23T03:56:57.576Z,100896.06
2022-10-23T03:59:45.217Z,100901.91
2022-10-23T04:02:33.014Z,100906.03
2022-10-23T04:05:20.362Z,100899.41
2022-10-23T04:08:08.036Z,100913.41
2022-10-23T04:10:55.502Z,100917.00
2022-10-23T04:13:42.828Z,100919.41
2022-10-23T04:16:30.328Z,100919.97
2022-10-23T04:19:17.979Z,100918.50
2022-10-23T04:22:05.243Z,100931.88
2022-10-23T04:24:52.694Z,100928.56
2022-10-23T04:27:40.121Z,100922.38
2022-10-23T04:30:27.608Z,100921.88
2022-10-23T04:33:15.202Z,100932.16
2022-10-23T04:36:02.659Z,100924.88
2022-10-23T04:38:50.004Z,100931.16
2022-10-23T04:41:39.264Z,100920.13
2022-10-23T04:44:26.647Z,100913.66
2022-10-23T04:47:13.989Z,100912.28
2022-10-23T04:50:01.441Z,100911.66
2022-10-23T04:52:49.048Z,100903.00
2022-10-23T04:55:36.753Z,100902.50
2022-10-23T04:58:25.388Z,100894.09
2022-10-23T05:01:13.094Z,100897.28
2022-10-23T05:04:00.694Z,100905.97
2022-10-23T05:06:48.212Z,100912.75
2022-10-23T05:09:36.027Z,100919.31
2022-10-23T05:12:25.587Z,100917.59
2022-10-23T05:15:13.387Z,100915.44
2022-10-23T05:18:10.889Z,100927.59
2022-10-23T05:21:22.530Z,100925.50
2022-10-23T05:24:11.605Z,100909.53
2022-10-23T05:26:58.926Z,100902.97
2022-10-23T05:29:46.428Z,100893.34
2022-10-23T05:32:34.529Z,100891.75
2022-10-23T05:35:24.367Z,100886.56
2022-10-23T05:38:13.155Z,100898.16
2022-10-23T05:41:00.885Z,100888.75
2022-10-23T05:43:48.457Z,100890.34
2022-10-23T05:46:42.332Z,100901.22
2022-10-23T05:49:29.620Z,100900.50
2022-10-23T05:52:19.012Z,100904.63
2022-10-23T05:55:06.825Z,100912.97
2022-10-23T05:57:54.253Z,100911.78
2022-10-23T06:00:41.683Z,100912.06
2022-10-23T06:03:29.016Z,100910.44
2022-10-23T06:06:16.341Z,100932.28
2022-10-23T06:09:04.437Z,100932.91
2022-10-23T06:11:51.747Z,100939.97
2022-10-23T06:14:39.086Z,100934.56
2022-10-23T06:17:27.721Z,100945.44
2022-10-23T06:20:15.081Z,100936.47
2022-10-23T06:23:02.604Z,100936.16
2022-10-23T06:25:57.070Z,100933.56
2022-10-23T06:28:44.841Z,100937.28
2022-10-23T06:31:34.725Z,100933.19
2022-10-23T06:34:22.336Z,100937.28
2022-10-23T06:37:10.097Z,100940.75
2022-10-23T06:39:57.949Z,100929.97
2022-10-23T06:42:45.813Z,100927.50
2022-10-23T06:45:36.472Z,100924.22
2022-10-23T06:48:23.822Z,100925.53
2022-10-23T06:51:13.354Z,100926.53
2022-10-23T06:54:00.688Z,100926.75
2022-10-23T06:56:47.997Z,100926.75
2022-10-23T06:59:35.282Z,100917.06
2022-10-23T07:02:22.806Z,100928.47
2022-10-23T07:05:13.474Z,100932.13
2022-10-23T07:08:01.274Z,100929.69
2022-10-23T07:10:48.846Z,100936.28
2022-10-23T07:13:37.269Z,100939.56
2022-10-23T07:16:24.937Z,100932.50
2022-10-23T07:19:12.299Z,100931.78
2022-10-23T07:21:59.760Z,100936.34
2022-10-23T07:24:47.456Z,100949.13
2022-10-23T07:27:37.765Z,100942.19
2022-10-23T07:30:25.168Z,100949.56
2022-10-23T07:33:12.612Z,100937.97
2022-10-23T07:36:00.356Z,100930.50
2022-10-23T07:38:47.673Z,100930.00
2022-10-23T07:41:35.021Z,100934.13
2022-10-23T07:44:24.407Z,100935.13
2022-10-23T07:47:14.267Z,100927.97
2022-10-23T07:50:01.497Z,100932.09
2022-10-23T07:52:49.015Z,100936.63
2022-10-23T07:55:36.445Z,100924.22
2022-10-23T07:58:25.845Z,100930.50
2022-10-23T08:01:20.250Z,100935.00
2022-10-23T08:04:07.757Z,100944.13
2022-10-23T08:06:56.331Z,100945.63
2022-10-23T08:09:43.714Z,100939.81
2022-10-23T08:12:31.090Z,100935.66
2022-10-23T08:15:18.754Z,100930.53
2022-10-23T08:18:06.282Z,100932.34
2022-10-23T08:20:53.633Z,100935.31
2022-10-23T08:23:41.454Z,100930.28
2022-10-23T08:26:29.471Z,100921.63
2022-10-23T08:29:17.166Z,100926.81
2022-10-23T08:32:04.762Z,100930.84
2022-10-23T08:34:53.102Z,100923.06
2022-10-23T08:37:40.498Z,100922.56
2022-10-23T08:40:27.988Z,100928.69
2022-10-23T08:43:39.300Z,100924.16
2022-10-23T08:46:31.314Z,100914.66
2022-10-23T08:49:24.553Z,100929.66
2022-10-23T08:52:35.246Z,100945.13
2022-10-23T08:55:38.548Z,100956.16
2022-10-23T08:58:39.369Z,100976.28
2022-10-23T09:01:46.965Z,100979.31
2022-10-23T09:04:35.058Z,100984.13
2022-10-23T09:07:26.622Z,100991.31
2022-10-23T09:10:51.402Z,101017.47
2022-10-23T09:14:07.034Z,101033.75
2022-10-23T09:17:03.651Z,101044.75
2022-10-23T09:19:59.172Z,101056.19
2022-10-23T09:22:48.799Z,101056.59
2022-10-23T09:25:38.860Z,101078.97
2022-10-23T09:28:33.356Z,101090.75
2022-10-23T09:31:21.257Z,101105.28
2022-10-23T09:34:19.808Z,101110.97
2022-10-23T09:37:29.240Z,101126.53
2022-10-23T09:40:29.299Z,101148.00
2022-10-23T09:43:19.323Z,101150.34
2022-10-23T09:46:09.818Z,101161.13
2022-10-23T09:49:00.932Z,101168.06
2022-10-23T09:52:10.294Z,101171.47
2022-10-23T09:55:15.730Z,101187.44
2022-10-23T09:58:03.213Z,101202.72
2022-10-23T10:00:53.416Z,101209.56
2022-10-23T10:03:50.046Z,101205.06
2022-10-23T10:06:37.550Z,101216.91
2022-10-23T10:09:24.956Z,101223.84
2022-10-23T10:12:38.071Z,101225.59
2022-10-23T10:15:48.515Z,101232.28
2022-10-23T10:18:50.526Z,101223.50
2022-10-23T10:22:00.842Z,101222.03
2022-10-23T10:24:56.519Z,101228.88
2022-10-23T10:28:07.396Z,101231.38
2022-10-23T10:31:00.867Z,101235.41
2022-10-23T10:34:06.532Z,101227.38
2022-10-23T10:37:32.991Z,101232.69
2022-10-23T10:40:25.534Z,101225.06
2022-10-23T10:43:22.121Z,101226.59
2022-10-23T10:46:30.890Z,101221.19
2022-10-23T10:49:52.814Z,101220.75
2022-10-23T10:52:41.202Z,101241.75
2022-10-23T10:55:35.790Z,101246.19
2022-10-23T10:58:45.441Z,101245.75
2022-10-23T11:01:38.273Z,101241.00
2022-10-23T11:04:45.874Z,101249.63
2022-10-23T11:07:43.167Z,101254.22
2022-10-23T11:10:31.124Z,101238.91
2022-10-23T11:13:33.766Z,101241.38
2022-10-23T11:16:32.493Z,101237.00
2022-10-23T11:19:27.622Z,101223.44
2022-10-23T11:22:23.861Z,101223.59
2022-10-23T11:25:31.880Z,101217.44
2022-10-23T11:28:36.237Z,101201.81
2022-10-23T11:32:03.242Z,101205.88
2022-10-23T11:35:07.200Z,101205.16
2022-10-23T11:38:11.868Z,101202.69
2022-10-23T11:41:03.807Z,101206.09
2022-10-23T11:43:52.958Z,101205.31
2022-10-23T11:46:42.462Z,101183.38
2022-10-23T11:49:29.853Z,101181.38
2022-10-23T11:52:25.266Z,101179.25
2022-10-23T11:55:20.108Z,101175.78
2022-10-23T11:58:07.400Z,101173.22
2022-10-23T12:00:59.533Z,101161.94
2022-10-23T12:03:55.590Z,101163.47
2022-10-23T12:06:49.798Z,101156.56
2022-10-23T12:09:37.775Z,101153.69
2022-10-23T12:12:29.970Z,101150.53
2022-10-23T12:15:20.613Z,101148.81
2022-10-23T12:18:12.085Z,101136.63
2022-10-23T12:21:01.335Z,101140.91
2022-10-23T12:24:22.797Z,101133.56
2022-10-23T12:27:33.738Z,101122.03
2022-10-23T12:33:52.310Z,101102.81
2022-10-23T12:37:07.114Z,101093.81
2022-10-23T12:39:56.195Z,101091.94
2022-10-23T12:42:53.996Z,101082.81
2022-10-23T12:45:43.984Z,101069.41
2022-10-23T12:48:33.565Z,101066.06
2022-10-23T12:51:25.065Z,101055.53
2022-10-23T12:54:18.411Z,101060.41
2022-10-23T12:57:20.109Z,101066.47
2022-10-23T13:00:15.550Z,101067.09
2022-10-23T13:03:04.344Z,101055.50
2022-10-23T13:05:53.606Z,101040.84
2022-10-23T13:08:46.608Z,101037.25
2022-10-23T13:11:34.322Z,101032.94
2022-10-23T13:14:43.594Z,101025.38
2022-10-23T13:17:42.309Z,101020.03
2022-10-23T13:20:43.215Z,101010.63
2022-10-23T13:23:33.407Z,101002.38
2022-10-23T13:26:29.927Z,101001.91
2022-10-23T13:29:37.585Z,100999.28
2022-10-23T13:32:28.868Z,100989.28
2022-10-23T13:35:23.084Z,100988.03
2022-10-23T13:38:10.785Z,100985.00
2022-10-23T13:40:59.658Z,100974.00
2022-10-23T13:43:47.758Z,100966.94
2022-10-23T13:46:35.041Z,100961.91
2022-10-23T13:49:22.393Z,100940.66
2022-10-23T13:52:13.012Z,100934.84
2022-10-23T13:55:00.339Z,100918.41
2022-10-23T13:57:48.063Z,100916.00
2022-10-23T14:00:38.042Z,100902.00
2022-10-23T14:03:25.371Z,100891.25
2022-10-23T14:06:12.730Z,100895.13
2022-10-23T14:09:00.140Z,100880.28
2022-10-23T14:11:47.794Z,100873.66
2022-10-23T14:14:35.103Z,100874.38
2022-10-23T14:17:22.746Z,100867.94
2022-10-23T14:20:10.707Z,100861.50
2022-10-23T14:22:57.965Z,100859.03
2022-10-23T14:25:45.243Z,100850.00
2022-10-23T14:28:33.219Z,100843.91
2022-10-23T14:31:20.909Z,100839.91
2022-10-23T14:34:08.827Z,100837.72
2022-10-23T14:37:08.070Z,100816.13
2022-10-23T14:39:56.338Z,100809.31
2022-10-23T14:42:44.061Z,100796.13
2022-10-23T14:45:31.778Z,100788.56
2022-10-23T14:48:19.940Z,100783.94
2022-10-23T14:51:16.013Z,100767.31
2022-10-23T14:54:05.338Z,100769.72
2022-10-23T14:56:52.610Z,100755.81
2022-10-23T14:59:39.994Z,100747.28
2022-10-23T15:02:27.386Z,100729.53
2022-10-23T15:05:15.017Z,100726.00
2022-10-23T15:08:02.290Z,100711.91
2022-10-23T15:10:49.981Z,100712.00
2022-10-23T15:13:37.595Z,100711.53
2022-10-23T15:16:24.998Z,100706.88
2022-10-23T15:19:18.118Z,100711.53
2022-10-23T15:22:06.314Z,100716.09
2022-10-23T15:24:57.092Z,100714.19
2022-10-23T15:27:44.687Z,100709.63
2022-10-23T15:30:33.085Z,100713.84
2022-10-23T15:33:22.517Z,100702.75
2022-10-23T15:36:09.808Z,100701.16
2022-10-23T15:38:57.936Z,100702.75
2022-10-23T15:41:45.734Z,100703.47
2022-10-23T15:44:34.190Z,100687.50
2022-10-23T15:47:21.577Z,100664.03
2022-10-23T15:50:09.224Z,100646.72
2022-10-23T15:52:56.585Z,100639.59
2022-10-23T15:55:43.890Z,100629.31
2022-10-23T15:58:31.212Z,100620.59
2022-10-23T16:01:18.962Z,100618.47
2022-10-23T16:04:06.522Z,100614.06
2022-10-23T16:06:53.857Z,100598.56
2022-10-23T16:09:41.759Z,100596.06
2022-10-23T16:12:29.207Z,100590.09
2022-10-23T16:15:16.576Z,100573.34
2022-10-23T16:18:04.676Z,100556.13
2022-10-23T16:20:55.094Z,100549.50
2022-10-23T16:23:42.543Z,100541.13
2022-10-23T16:26:30.707Z,100544.19
2022-10-23T16:29:18.122Z,100530.84
2022-10-23T16:32:05.677Z,100523.75
2022-10-23T16:34:52.967Z,100515.78
2022-10-23T16:37:40.575Z,100507.28
2022-10-23T16:40:27.926Z,100493.94
2022-10-23T16:43:15.301Z,100491.47
2022-10-23T16:46:14.697Z,100477.91
2022-10-23T16:49:06.113Z,100471.41
2022-10-23T16:51:53.955Z,100475.28
2022-10-23T16:54:43.229Z,100467.13
2022-10-23T16:57:30.830Z,100468.53
2022-10-23T17:00:21.900Z,100473.28
2022-10-23T17:03:10.893Z,100465.34
2022-10-23T17:06:04.151Z,100459.59
2022-10-23T17:08:55.277Z,100466.94
2022-10-23T17:11:44.439Z,100456.53
2022-10-23T17:14:32.877Z,100453.00
2022-10-23T17:17:20.620Z,100468.41
2022-10-23T17:20:08.490Z,100459.72
2022-10-23T17:22:56.067Z,100452.00
2022-10-23T17:25:43.501Z,100435.94
2022-10-23T17:28:32.099Z,100432.75
2022-10-23T17:31:25.351Z,100436.66
2022-10-23T17:34:15.459Z,100431.53
2022-10-23T17:37:03.260Z,100426.44
2022-10-23T17:39:51.020Z,100420.34
2022-10-23T17:42:39.799Z,100437.78
2022-10-23T17:45:27.147Z,100422.75
2022-10-23T17:48:17.109Z,100409.59
2022-10-23T17:51:12.391Z,100404.50
2022-10-23T17:54:01.990Z,100401.50
2022-10-23T17:56:49.410Z,100388.72
2022-10-23T17:59:38.964Z,100387.75
2022-10-23T18:02:26.910Z,100374.97
2022-10-23T18:05:14.626Z,100369.88
2022-10-23T18:08:05.185Z,100369.41
2022-10-23T18:10:52.498Z,100374.03
2022-10-23T18:13:39.853Z,100368.28
2022-10-23T18:16:27.664Z,100362.22
2022-10-23T18:19:18.190Z,100358.69
2022-10-23T18:22:05.760Z,100356.22
2022-10-23T18:24:53.181Z,100357.81
2022-10-23T18:27:41.482Z,100358.25
2022-10-23T18:30:28.957Z,100353.84
2022-10-23T18:33:16.873Z,100359.38
2022-10-23T18:36:12.500Z,100373.91
2022-10-23T18:38:59.855Z,100362.72
2022-10-23T18:41:47.211Z,100359.75
2022-10-23T18:44:34.853Z,100355.00
2022-10-23T18:47:22.124Z,100349.56
2022-10-23T18:50:09.921Z,100357.38
2022-10-23T18:52:57.648Z,100361.34
2022-10-23T18:55:46.748Z,100362.25
2022-10-23T18:58:34.417Z,100365.53
2022-10-23T19:01:22.667Z,100371.28
2022-10-23T19:04:15.929Z,100366.91
2022-10-23T19:07:03.518Z,100363.31
2022-10-23T19:09:51.214Z,100368.63
2022-10-23T19:12:38.529Z,100369.06
2022-10-23T19:15:25.998Z,100363.47
2022-10-23T19:18:13.605Z,100350.84
2022-10-23T19:21:01.394Z,100339.19
2022-10-23T19:23:49.930Z,100331.03
2022-10-23T19:26:38.751Z,100347.13
2022-10-23T19:29:26.775Z,100335.34
2022-10-23T19:32:15.080Z,100343.03
2022-10-23T19:35:03.852Z,100348.03
2022-10-23T19:37:51.168Z,100347.16
2022-10-23T19:40:38.635Z,100349.09
2022-10-23T19:43:26.259Z,100356.44
2022-10-23T19:46:13.742Z,100358.91
2022-10-23T19:49:01.107Z,100356.78
2022-10-23T19:51:51.199Z,100358.06
2022-10-23T19:54:41.284Z,100355.41
2022-10-23T19:57:30.489Z,100351.13
2022-10-23T20:00:18.533Z,100362.53
2022-10-23T20:03:06.111Z,100353.28
2022-10-23T20:05:53.455Z,100349.66
2022-10-23T20:08:41.398Z,100345.94
2022-10-23T20:11:31.296Z,100357.44
2022-10-23T20:14:20.041Z,100362.69
2022-10-23T20:17:07.380Z,100366.84
2022-10-23T20:19:54.859Z,100367.97
2022-10-23T20:22:44.111Z,100376.25
2022-10-23T20:25:31.575Z,100375.91
2022-10-23T20:28:19.467Z,100375.13
2022-10-23T20:31:11.346Z,100376.69
2022-10-23T20:33:59.128Z,100373.41
2022-10-23T20:36:49.097Z,100371.59
2022-10-23T20:39:36.760Z,100375.44
2022-10-23T20:42:24.091Z,100376.56
2022-10-23T20:45:11.384Z,100369.56
2022-10-23T20:47:58.728Z,100371.38
2022-10-23T20:50:46.071Z,100360.50
2022-10-23T20:53:38.502Z,100377.03
2022-10-23T20:56:31.066Z,100369.56
2022-10-23T20:59:19.247Z,100373.53
2022-10-23T21:02:07.118Z,100378.00
2022-10-23T21:04:54.548Z,100383.56
2022-10-23T21:07:41.866Z,100392.97
2022-10-23T21:10:29.266Z,100388.38
2022-10-23T21:13:16.992Z,100400.84
2022-10-23T21:16:24.837Z,100399.81
2022-10-23T21:19:16.432Z,100399.16
2022-10-23T21:22:03.854Z,100384.19
2022-10-23T21:24:51.103Z,100391.97
2022-10-23T21:27:38.430Z,100383.50
2022-10-23T21:30:25.711Z,100371.03
2022-10-23T21:33:14.630Z,100379.44
2022-10-23T21:36:14.267Z,100359.06
2022-10-23T21:39:03.697Z,100349.38
2022-10-23T21:41:50.989Z,100341.97
2022-10-23T21:44:38.328Z,100323.50
2022-10-23T21:47:25.749Z,100313.44
2022-10-23T21:50:13.459Z,100316.06
2022-10-23T21:53:00.779Z,100315.66
2022-10-23T21:55:48.155Z,100296.88
2022-10-23T21:58:36.059Z,100285.38
2022-10-23T22:01:23.809Z,100279.06
2022-10-23T22:04:17.281Z,100248.97
2022-10-23T22:07:05.853Z,100209.94
